sensor_id;sensor_type;location;lat;lon;timestamp;temperature;humidity
12655;DHT22;6392;44.644;11.448;2024-03-23T00:54:21;11.70;99.90
12655;DHT22;6392;44.644;11.448;2024-03-23T00:56:48;11.70;99.90
12655;DHT22;6392;44.644;11.448;2024-03-23T00:59:14;11.70;99.90
12655;DHT22;6392;44.644;11.448;2024-03-23T01:01:41;11.70;99.90
12655;DHT22;6392;44.644;11.448;2024-03-23T01:04:07;11.70;99.90
12655;DHT22;6392;44.644;11.448;2024-03-23T01:06:34;11.60;99.90
12655;DHT22;6392;44.644;11.448;2024-03-23T01:09:00;11.60;99.90
12655;DHT22;6392;44.644;11.448;2024-03-23T01:11:29;11.60;99.90
12655;DHT22;6392;44.644;11.448;2024-03-23T01:13:55;11.50;99.90
12655;DHT22;6392;44.644;11.448;2024-03-23T01:16:22;11.50;99.90
12655;DHT22;6392;44.644;11.448;2024-03-23T01:18:48;11.50;99.90
12655;DHT22;6392;44.644;11.448;2024-03-23T01:21:15;11.40;99.90
12655;DHT22;6392;44.644;11.448;2024-03-23T01:23:41;11.30;99.90
12655;DHT22;6392;44.644;11.448;2024-03-23T01:26:09;11.20;99.90
12655;DHT22;6392;44.644;11.448;2024-03-23T01:28:36;11.20;99.90
12655;DHT22;6392;44.644;11.448;2024-03-23T01:31:03;11.20;99.90
12655;DHT22;6392;44.644;11.448;2024-03-23T01:33:30;11.20;99.90
12655;DHT22;6392;44.644;11.448;2024-03-23T01:35:57;11.30;99.90
12655;DHT22;6392;44.644;11.448;2024-03-23T01:38:23;11.40;99.90
12655;DHT22;6392;44.644;11.448;2024-03-23T01:40:53;11.50;99.90
12655;DHT22;6392;44.644;11.448;2024-03-23T01:43:21;11.50;99.90
12655;DHT22;6392;44.644;11.448;2024-03-23T01:45:50;11.50;99.90
12655;DHT22;6392;44.644;11.448;2024-03-23T01:48:16;11.50;99.90
12655;DHT22;6392;44.644;11.448;2024-03-23T01:50:43;11.50;99.90
12655;DHT22;6392;44.644;11.448;2024-03-23T01:53:09;11.40;99.90
12655;DHT22;6392;44.644;11.448;2024-03-23T01:55:37;11.40;99.90
12655;DHT22;6392;44.644;11.448;2024-03-23T01:58:04;11.40;99.90
12655;DHT22;6392;44.644;11.448;2024-03-23T02:00:31;11.40;99.90
12655;DHT22;6392;44.644;11.448;2024-03-23T02:02:59;11.30;99.90
12655;DHT22;6392;44.644;11.448;2024-03-23T02:05:26;11.30;99.90
12655;DHT22;6392;44.644;11.448;2024-03-23T02:07:53;11.20;99.90
12655;DHT22;6392;44.644;11.448;2024-03-23T02:10:20;11.20;99.90
12655;DHT22;6392;44.644;11.448;2024-03-23T02:12:46;11.20;99.90
12655;DHT22;6392;44.644;11.448;2024-03-23T02:15:13;11.10;99.90
12655;DHT22;6392;44.644;11.448;2024-03-23T02:17:39;11.10;99.90
12655;DHT22;6392;44.644;11.448;2024-03-23T02:20:09;11.00;99.90
12655;DHT22;6392;44.644;11.448;2024-03-23T02:22:36;11.00;99.90
12655;DHT22;6392;44.644;11.448;2024-03-23T02:25:06;11.10;99.90
12655;DHT22;6392;44.644;11.448;2024-03-23T02:27:32;11.20;99.90
12655;DHT22;6392;44.644;11.448;2024-03-23T02:30:00;11.30;99.90
12655;DHT22;6392;44.644;11.448;2024-03-23T02:32:26;11.30;99.90
12655;DHT22;6392;44.644;11.448;2024-03-23T02:34:53;11.30;99.90
12655;DHT22;6392;44.644;11.448;2024-03-23T02:37:19;11.20;99.90
12655;DHT22;6392;44.644;11.448;2024-03-23T02:39:46;11.20;99.90
12655;DHT22;6392;44.644;11.448;2024-03-23T02:42:14;11.10;99.90
12655;DHT22;6392;44.644;11.448;2024-03-23T02:44:42;11.00;99.90
12655;DHT22;6392;44.644;11.448;2024-03-23T02:47:08;11.00;99.90
12655;DHT22;6392;44.644;11.448;2024-03-23T02:49:35;10.90;99.90
12655;DHT22;6392;44.644;11.448;2024-03-23T02:52:02;10.80;99.90
12655;DHT22;6392;44.644;11.448;2024-03-23T02:54:29;10.70;99.90
12655;DHT22;6392;44.644;11.448;2024-03-23T02:56:55;10.70;99.90
12655;DHT22;6392;44.644;11.448;2024-03-23T02:59:23;10.70;99.90
12655;DHT22;6392;44.644;11.448;2024-03-23T03:01:49;10.70;99.90
12655;DHT22;6392;44.644;11.448;2024-03-23T03:04:16;10.70;99.90
12655;DHT22;6392;44.644;11.448;2024-03-23T03:06:46;10.70;99.90
12655;DHT22;6392;44.644;11.448;2024-03-23T03:09:13;10.70;99.90
12655;DHT22;6392;44.644;11.448;2024-03-23T03:11:39;10.70;99.90
12655;DHT22;6392;44.644;11.448;2024-03-23T03:14:06;10.70;99.90
12655;DHT22;6392;44.644;11.448;2024-03-23T03:16:34;10.60;99.90
12655;DHT22;6392;44.644;11.448;2024-03-23T03:19:01;10.60;99.90
12655;DHT22;6392;44.644;11.448;2024-03-23T03:21:28;10.60;99.90
12655;DHT22;6392;44.644;11.448;2024-03-23T03:23:55;10.60;99.90
12655;DHT22;6392;44.644;11.448;2024-03-23T03:26:22;10.60;99.90
12655;DHT22;6392;44.644;11.448;2024-03-23T03:28:50;10.70;99.90
12655;DHT22;6392;44.644;11.448;2024-03-23T03:31:16;10.70;99.90
12655;DHT22;6392;44.644;11.448;2024-03-23T03:33:45;10.60;99.90
12655;DHT22;6392;44.644;11.448;2024-03-23T03:36:11;10.40;99.90
12655;DHT22;6392;44.644;11.448;2024-03-23T03:38:38;10.30;99.90
12655;DHT22;6392;44.644;11.448;2024-03-23T03:41:04;10.30;99.90
12655;DHT22;6392;44.644;11.448;2024-03-23T03:43:33;10.30;99.90
12655;DHT22;6392;44.644;11.448;2024-03-23T03:46:00;10.20;99.90
12655;DHT22;6392;44.644;11.448;2024-03-23T03:48:27;10.20;99.90
12655;DHT22;6392;44.644;11.448;2024-03-23T03:50:54;10.20;99.90
12655;DHT22;6392;44.644;11.448;2024-03-23T03:53:21;10.30;99.90
12655;DHT22;6392;44.644;11.448;2024-03-23T03:55:48;10.40;99.90
12655;DHT22;6392;44.644;11.448;2024-03-23T03:58:15;10.40;99.90
12655;DHT22;6392;44.644;11.448;2024-03-23T04:00:41;10.50;99.90
12655;DHT22;6392;44.644;11.448;2024-03-23T04:03:08;10.40;99.90
12655;DHT22;6392;44.644;11.448;2024-03-23T04:05:34;10.40;99.90
12655;DHT22;6392;44.644;11.448;2024-03-23T04:08:03;10.40;99.90
12655;DHT22;6392;44.644;11.448;2024-03-23T04:10:30;10.30;99.90
12655;DHT22;6392;44.644;11.448;2024-03-23T04:12:57;10.20;99.90
12655;DHT22;6392;44.644;11.448;2024-03-23T04:15:23;10.10;99.90
12655;DHT22;6392;44.644;11.448;2024-03-23T04:17:50;10.10;99.90
12655;DHT22;6392;44.644;11.448;2024-03-23T04:20:16;10.20;99.90
12655;DHT22;6392;44.644;11.448;2024-03-23T04:22:44;10.30;99.90
12655;DHT22;6392;44.644;11.448;2024-03-23T04:25:11;10.30;99.90
12655;DHT22;6392;44.644;11.448;2024-03-23T04:27:39;10.40;99.90
12655;DHT22;6392;44.644;11.448;2024-03-23T04:30:07;10.40;99.90
12655;DHT22;6392;44.644;11.448;2024-03-23T04:32:36;10.40;99.90
12655;DHT22;6392;44.644;11.448;2024-03-23T04:35:03;10.30;99.90
12655;DHT22;6392;44.644;11.448;2024-03-23T04:37:31;10.40;99.90
12655;DHT22;6392;44.644;11.448;2024-03-23T04:39:59;10.40;99.90
12655;DHT22;6392;44.644;11.448;2024-03-23T04:42:28;10.40;99.90
12655;DHT22;6392;44.644;11.448;2024-03-23T04:44:55;10.40;99.90
12655;DHT22;6392;44.644;11.448;2024-03-23T04:47:22;10.40;99.90
12655;DHT22;6392;44.644;11.448;2024-03-23T04:49:49;10.40;99.90
12655;DHT22;6392;44.644;11.448;2024-03-23T04:52:17;10.20;99.90
12655;DHT22;6392;44.644;11.448;2024-03-23T04:54:44;10.10;99.90
12655;DHT22;6392;44.644;11.448;2024-03-23T04:57:12;10.00;99.90
12655;DHT22;6392;44.644;11.448;2024-03-23T04:59:41;10.00;99.90
12655;DHT22;6392;44.644;11.448;2024-03-23T05:02:07;10.10;99.90
12655;DHT22;6392;44.644;11.448;2024-03-23T05:04:35;10.20;99.90
12655;DHT22;6392;44.644;11.448;2024-03-23T05:07:02;10.30;99.90
12655;DHT22;6392;44.644;11.448;2024-03-23T05:09:30;10.40;99.90
12655;DHT22;6392;44.644;11.448;2024-03-23T05:11:56;10.50;99.90
12655;DHT22;6392;44.644;11.448;2024-03-23T05:14:23;10.50;99.90
12655;DHT22;6392;44.644;11.448;2024-03-23T05:16:50;10.50;99.90
12655;DHT22;6392;44.644;11.448;2024-03-23T05:19:18;10.60;99.90
12655;DHT22;6392;44.644;11.448;2024-03-23T05:21:44;10.60;99.90
12655;DHT22;6392;44.644;11.448;2024-03-23T05:24:11;10.60;99.90
12655;DHT22;6392;44.644;11.448;2024-03-23T05:26:37;10.50;99.90
12655;DHT22;6392;44.644;11.448;2024-03-23T05:29:04;10.40;99.90
12655;DHT22;6392;44.644;11.448;2024-03-23T05:31:32;10.30;99.90
12655;DHT22;6392;44.644;11.448;2024-03-23T05:34:01;10.30;99.90
12655;DHT22;6392;44.644;11.448;2024-03-23T05:36:27;10.10;99.90
12655;DHT22;6392;44.644;11.448;2024-03-23T05:38:54;10.10;99.90
12655;DHT22;6392;44.644;11.448;2024-03-23T05:41:20;10.00;99.90
12655;DHT22;6392;44.644;11.448;2024-03-23T05:43:49;9.90;99.90
12655;DHT22;6392;44.644;11.448;2024-03-23T05:46:15;9.90;99.90
12655;DHT22;6392;44.644;11.448;2024-03-23T05:48:43;9.90;99.90
12655;DHT22;6392;44.644;11.448;2024-03-23T05:51:11;9.90;99.90
12655;DHT22;6392;44.644;11.448;2024-03-23T05:53:38;9.90;99.90
12655;DHT22;6392;44.644;11.448;2024-03-23T05:56:05;10.00;99.90
12655;DHT22;6392;44.644;11.448;2024-03-23T05:58:32;10.00;99.90
12655;DHT22;6392;44.644;11.448;2024-03-23T06:00:59;10.00;99.90
12655;DHT22;6392;44.644;11.448;2024-03-23T06:03:27;10.00;99.90
12655;DHT22;6392;44.644;11.448;2024-03-23T06:05:53;10.00;99.90
12655;DHT22;6392;44.644;11.448;2024-03-23T06:08:21;10.10;99.90
12655;DHT22;6392;44.644;11.448;2024-03-23T06:10:48;10.10;99.90
12655;DHT22;6392;44.644;11.448;2024-03-23T06:13:16;10.10;99.90
12655;DHT22;6392;44.644;11.448;2024-03-23T06:15:42;10.20;99.90
12655;DHT22;6392;44.644;11.448;2024-03-23T06:18:11;10.20;99.90
12655;DHT22;6392;44.644;11.448;2024-03-23T06:20:37;10.30;99.90
12655;DHT22;6392;44.644;11.448;2024-03-23T06:23:04;10.40;99.90
12655;DHT22;6392;44.644;11.448;2024-03-23T06:25:32;10.50;99.90
12655;DHT22;6392;44.644;11.448;2024-03-23T06:27:59;10.70;99.90
12655;DHT22;6392;44.644;11.448;2024-03-23T06:30:27;10.80;99.90
12655;DHT22;6392;44.644;11.448;2024-03-23T06:32:55;10.90;99.90
12655;DHT22;6392;44.644;11.448;2024-03-23T06:35:21;11.10;99.90
12655;DHT22;6392;44.644;11.448;2024-03-23T06:37:48;11.10;99.90
12655;DHT22;6392;44.644;11.448;2024-03-23T06:40:14;11.20;99.90
12655;DHT22;6392;44.644;11.448;2024-03-23T06:42:43;11.30;99.90
12655;DHT22;6392;44.644;11.448;2024-03-23T06:45:09;11.40;99.90
12655;DHT22;6392;44.644;11.448;2024-03-23T06:47:37;11.40;99.90
12655;DHT22;6392;44.644;11.448;2024-03-23T06:50:03;11.50;99.90
12655;DHT22;6392;44.644;11.448;2024-03-23T06:52:31;11.60;99.90
12655;DHT22;6392;44.644;11.448;2024-03-23T06:54:58;11.60;99.90
12655;DHT22;6392;44.644;11.448;2024-03-23T06:57:25;11.70;99.90
12655;DHT22;6392;44.644;11.448;2024-03-23T06:59:52;11.80;99.90
12655;DHT22;6392;44.644;11.448;2024-03-23T07:02:19;11.80;99.90
12655;DHT22;6392;44.644;11.448;2024-03-23T07:04:45;12.00;99.90
12655;DHT22;6392;44.644;11.448;2024-03-23T07:07:12;12.10;99.90
12655;DHT22;6392;44.644;11.448;2024-03-23T07:09:38;12.30;99.90
12655;DHT22;6392;44.644;11.448;2024-03-23T07:12:06;12.50;99.90
12655;DHT22;6392;44.644;11.448;2024-03-23T07:14:32;12.70;99.90
12655;DHT22;6392;44.644;11.448;2024-03-23T07:17:01;12.90;99.90
12655;DHT22;6392;44.644;11.448;2024-03-23T07:19:27;13.00;99.90
12655;DHT22;6392;44.644;11.448;2024-03-23T07:21:54;13.20;99.90
12655;DHT22;6392;44.644;11.448;2024-03-23T07:24:20;13.30;99.90
12655;DHT22;6392;44.644;11.448;2024-03-23T07:26:47;13.40;99.90
12655;DHT22;6392;44.644;11.448;2024-03-23T07:29:13;13.40;99.90
12655;DHT22;6392;44.644;11.448;2024-03-23T07:31:40;13.50;99.90
12655;DHT22;6392;44.644;11.448;2024-03-23T07:34:08;13.60;99.90
12655;DHT22;6392;44.644;11.448;2024-03-23T07:36:35;13.70;99.90
12655;DHT22;6392;44.644;11.448;2024-03-23T07:39:01;13.80;99.90
12655;DHT22;6392;44.644;11.448;2024-03-23T07:41:29;13.90;99.90
12655;DHT22;6392;44.644;11.448;2024-03-23T07:43:56;14.10;99.90
12655;DHT22;6392;44.644;11.448;2024-03-23T07:46:23;14.20;99.90
12655;DHT22;6392;44.644;11.448;2024-03-23T07:48:51;14.30;99.90
12655;DHT22;6392;44.644;11.448;2024-03-23T07:51:21;14.40;99.90
12655;DHT22;6392;44.644;11.448;2024-03-23T07:53:48;14.50;99.90
12655;DHT22;6392;44.644;11.448;2024-03-23T07:56:15;14.60;99.90
12655;DHT22;6392;44.644;11.448;2024-03-23T07:58:42;14.60;99.90
12655;DHT22;6392;44.644;11.448;2024-03-23T08:01:11;14.70;99.90
12655;DHT22;6392;44.644;11.448;2024-03-23T08:03:38;14.80;99.90
12655;DHT22;6392;44.644;11.448;2024-03-23T08:06:10;14.80;99.90
12655;DHT22;6392;44.644;11.448;2024-03-23T08:08:38;14.90;99.90
12655;DHT22;6392;44.644;11.448;2024-03-23T08:11:06;15.00;99.90
12655;DHT22;6392;44.644;11.448;2024-03-23T08:13:32;15.10;99.90
12655;DHT22;6392;44.644;11.448;2024-03-23T08:16:00;15.20;99.90
12655;DHT22;6392;44.644;11.448;2024-03-23T08:18:26;15.20;99.90
12655;DHT22;6392;44.644;11.448;2024-03-23T08:20:57;15.30;99.90
12655;DHT22;6392;44.644;11.448;2024-03-23T08:23:24;15.50;99.90
12655;DHT22;6392;44.644;11.448;2024-03-23T08:25:57;15.60;99.90
12655;DHT22;6392;44.644;11.448;2024-03-23T08:28:24;15.70;99.90
12655;DHT22;6392;44.644;11.448;2024-03-23T08:30:50;15.70;99.90
12655;DHT22;6392;44.644;11.448;2024-03-23T08:33:17;15.80;99.90
12655;DHT22;6392;44.644;11.448;2024-03-23T08:35:53;15.80;99.90
12655;DHT22;6392;44.644;11.448;2024-03-23T08:38:20;15.80;99.90
12655;DHT22;6392;44.644;11.448;2024-03-23T08:40:46;15.80;99.90
12655;DHT22;6392;44.644;11.448;2024-03-23T08:43:15;15.90;99.90
12655;DHT22;6392;44.644;11.448;2024-03-23T08:45:41;15.90;99.90
12655;DHT22;6392;44.644;11.448;2024-03-23T08:48:08;16.00;99.90
12655;DHT22;6392;44.644;11.448;2024-03-23T08:50:35;16.20;99.90
12655;DHT22;6392;44.644;11.448;2024-03-23T08:53:02;16.30;99.90
12655;DHT22;6392;44.644;11.448;2024-03-23T08:55:28;16.30;99.90
12655;DHT22;6392;44.644;11.448;2024-03-23T08:57:55;16.40;99.90
12655;DHT22;6392;44.644;11.448;2024-03-23T09:00:23;16.40;99.90
12655;DHT22;6392;44.644;11.448;2024-03-23T09:02:50;16.50;99.90
12655;DHT22;6392;44.644;11.448;2024-03-23T09:05:16;16.50;99.90
12655;DHT22;6392;44.644;11.448;2024-03-23T09:07:43;16.50;99.90
12655;DHT22;6392;44.644;11.448;2024-03-23T09:10:09;16.60;99.90
12655;DHT22;6392;44.644;11.448;2024-03-23T09:12:36;16.60;99.90
12655;DHT22;6392;44.644;11.448;2024-03-23T09:15:03;16.70;99.90
12655;DHT22;6392;44.644;11.448;2024-03-23T09:17:31;16.70;99.90
12655;DHT22;6392;44.644;11.448;2024-03-23T09:19:57;16.60;99.90
12655;DHT22;6392;44.644;11.448;2024-03-23T09:22:24;16.60;99.90
12655;DHT22;6392;44.644;11.448;2024-03-23T09:24:50;16.60;99.90
12655;DHT22;6392;44.644;11.448;2024-03-23T09:27:17;16.60;99.90
12655;DHT22;6392;44.644;11.448;2024-03-23T09:29:43;16.60;99.90
12655;DHT22;6392;44.644;11.448;2024-03-23T09:32:10;16.70;99.90
12655;DHT22;6392;44.644;11.448;2024-03-23T09:34:38;16.70;99.90
12655;DHT22;6392;44.644;11.448;2024-03-23T09:37:05;16.90;99.90
12655;DHT22;6392;44.644;11.448;2024-03-23T09:39:31;17.00;99.90
12655;DHT22;6392;44.644;11.448;2024-03-23T09:41:58;17.00;99.90
12655;DHT22;6392;44.644;11.448;2024-03-23T09:44:25;17.00;99.90
12655;DHT22;6392;44.644;11.448;2024-03-23T09:46:55;17.00;99.90
12655;DHT22;6392;44.644;11.448;2024-03-23T09:49:21;17.00;99.90
12655;DHT22;6392;44.644;11.448;2024-03-23T09:51:50;17.10;99.90
12655;DHT22;6392;44.644;11.448;2024-03-23T09:54:16;17.10;99.90
12655;DHT22;6392;44.644;11.448;2024-03-23T09:56:44;17.10;99.90
12655;DHT22;6392;44.644;11.448;2024-03-23T09:59:10;17.10;99.90
12655;DHT22;6392;44.644;11.448;2024-03-23T10:01:37;17.10;99.90
12655;DHT22;6392;44.644;11.448;2024-03-23T10:04:03;17.20;99.90
12655;DHT22;6392;44.644;11.448;2024-03-23T10:06:31;17.30;99.90
12655;DHT22;6392;44.644;11.448;2024-03-23T10:08:58;17.30;99.90
12655;DHT22;6392;44.644;11.448;2024-03-23T10:11:25;17.30;99.90
12655;DHT22;6392;44.644;11.448;2024-03-23T10:13:53;17.40;99.90
12655;DHT22;6392;44.644;11.448;2024-03-23T10:16:23;17.40;99.90
12655;DHT22;6392;44.644;11.448;2024-03-23T10:18:49;17.40;99.90
12655;DHT22;6392;44.644;11.448;2024-03-23T10:21:17;17.50;99.90
12655;DHT22;6392;44.644;11.448;2024-03-23T10:23:43;17.60;99.90
12655;DHT22;6392;44.644;11.448;2024-03-23T10:26:29;17.70;99.90
12655;DHT22;6392;44.644;11.448;2024-03-23T10:28:57;17.70;99.90
12655;DHT22;6392;44.644;11.448;2024-03-23T10:31:27;17.70;99.90
12655;DHT22;6392;44.644;11.448;2024-03-23T10:33:53;17.60;99.90
12655;DHT22;6392;44.644;11.448;2024-03-23T10:36:22;17.60;99.90
12655;DHT22;6392;44.644;11.448;2024-03-23T10:38:50;17.60;99.90
12655;DHT22;6392;44.644;11.448;2024-03-23T10:41:21;17.70;99.90
12655;DHT22;6392;44.644;11.448;2024-03-23T10:43:49;17.70;99.90
12655;DHT22;6392;44.644;11.448;2024-03-23T10:46:16;17.70;99.90
12655;DHT22;6392;44.644;11.448;2024-03-23T10:48:43;17.70;99.90
12655;DHT22;6392;44.644;11.448;2024-03-23T10:51:11;17.80;99.90
12655;DHT22;6392;44.644;11.448;2024-03-23T10:53:37;17.80;99.90
12655;DHT22;6392;44.644;11.448;2024-03-23T10:56:06;17.80;99.90
12655;DHT22;6392;44.644;11.448;2024-03-23T10:58:37;17.90;99.90
12655;DHT22;6392;44.644;11.448;2024-03-23T11:01:10;18.00;99.90
12655;DHT22;6392;44.644;11.448;2024-03-23T11:03:38;18.10;99.90
12655;DHT22;6392;44.644;11.448;2024-03-23T11:06:06;18.20;99.90
12655;DHT22;6392;44.644;11.448;2024-03-23T11:08:35;18.10;99.90
12655;DHT22;6392;44.644;11.448;2024-03-23T11:11:17;18.10;99.90
12655;DHT22;6392;44.644;11.448;2024-03-23T11:13:45;18.10;99.90
12655;DHT22;6392;44.644;11.448;2024-03-23T11:16:21;18.10;99.90
12655;DHT22;6392;44.644;11.448;2024-03-23T11:18:50;18.10;99.90
12655;DHT22;6392;44.644;11.448;2024-03-23T11:21:52;18.10;99.90
12655;DHT22;6392;44.644;11.448;2024-03-23T11:24:20;18.10;99.90
12655;DHT22;6392;44.644;11.448;2024-03-23T11:26:48;18.10;99.90
12655;DHT22;6392;44.644;11.448;2024-03-23T11:29:16;18.20;99.90
12655;DHT22;6392;44.644;11.448;2024-03-23T11:31:49;18.20;99.90
12655;DHT22;6392;44.644;11.448;2024-03-23T11:34:17;18.30;99.90
12655;DHT22;6392;44.644;11.448;2024-03-23T11:36:44;18.30;99.90
12655;DHT22;6392;44.644;11.448;2024-03-23T11:39:16;18.40;99.90
12655;DHT22;6392;44.644;11.448;2024-03-23T11:41:47;18.50;99.90
12655;DHT22;6392;44.644;11.448;2024-03-23T11:44:17;18.60;99.90
12655;DHT22;6392;44.644;11.448;2024-03-23T11:46:45;18.80;99.90
12655;DHT22;6392;44.644;11.448;2024-03-23T11:49:23;19.00;99.90
12655;DHT22;6392;44.644;11.448;2024-03-23T11:51:50;19.20;99.90
12655;DHT22;6392;44.644;11.448;2024-03-23T11:54:21;19.30;99.90
12655;DHT22;6392;44.644;11.448;2024-03-23T11:56:56;19.30;99.90
12655;DHT22;6392;44.644;11.448;2024-03-23T11:59:34;19.30;99.90
12655;DHT22;6392;44.644;11.448;2024-03-23T12:02:06;19.30;99.90
12655;DHT22;6392;44.644;11.448;2024-03-23T12:04:34;19.40;99.90
12655;DHT22;6392;44.644;11.448;2024-03-23T12:07:17;19.50;99.90
12655;DHT22;6392;44.644;11.448;2024-03-23T12:09:45;19.60;99.90
12655;DHT22;6392;44.644;11.448;2024-03-23T12:12:14;19.70;99.90
12655;DHT22;6392;44.644;11.448;2024-03-23T12:14:41;19.80;99.90
12655;DHT22;6392;44.644;11.448;2024-03-23T12:17:10;19.80;99.90
12655;DHT22;6392;44.644;11.448;2024-03-23T12:19:39;19.90;99.90
12655;DHT22;6392;44.644;11.448;2024-03-23T12:22:07;20.10;99.90
12655;DHT22;6392;44.644;11.448;2024-03-23T12:24:34;20.20;99.90
12655;DHT22;6392;44.644;11.448;2024-03-23T12:27:02;20.40;99.90
12655;DHT22;6392;44.644;11.448;2024-03-23T12:29:29;20.60;99.90
12655;DHT22;6392;44.644;11.448;2024-03-23T12:32:00;20.70;99.90
12655;DHT22;6392;44.644;11.448;2024-03-23T12:34:26;20.60;99.90
12655;DHT22;6392;44.644;11.448;2024-03-23T12:36:57;20.70;99.90
12655;DHT22;6392;44.644;11.448;2024-03-23T12:39:23;21.00;99.90
12655;DHT22;6392;44.644;11.448;2024-03-23T12:41:51;21.10;99.90
12655;DHT22;6392;44.644;11.448;2024-03-23T12:44:18;21.20;99.90
12655;DHT22;6392;44.644;11.448;2024-03-23T12:46:46;21.40;99.90
12655;DHT22;6392;44.644;11.448;2024-03-23T12:49:14;21.50;99.90
12655;DHT22;6392;44.644;11.448;2024-03-23T12:51:48;21.70;99.90
12655;DHT22;6392;44.644;11.448;2024-03-23T12:54:20;21.90;99.90
12655;DHT22;6392;44.644;11.448;2024-03-23T12:56:48;21.90;99.90
12655;DHT22;6392;44.644;11.448;2024-03-23T12:59:14;22.10;99.90
12655;DHT22;6392;44.644;11.448;2024-03-23T13:01:42;22.30;99.90
12655;DHT22;6392;44.644;11.448;2024-03-23T13:04:09;22.40;99.90
12655;DHT22;6392;44.644;11.448;2024-03-23T13:06:37;22.50;99.90
12655;DHT22;6392;44.644;11.448;2024-03-23T13:09:04;22.60;99.90
12655;DHT22;6392;44.644;11.448;2024-03-23T13:11:33;22.70;99.90
12655;DHT22;6392;44.644;11.448;2024-03-23T13:13:59;22.70;99.90
12655;DHT22;6392;44.644;11.448;2024-03-23T13:16:26;22.60;99.90
12655;DHT22;6392;44.644;11.448;2024-03-23T13:18:52;22.40;99.90
12655;DHT22;6392;44.644;11.448;2024-03-23T13:21:20;22.30;99.90
12655;DHT22;6392;44.644;11.448;2024-03-23T13:23:48;22.50;99.90
12655;DHT22;6392;44.644;11.448;2024-03-23T13:26:17;22.80;99.90
12655;DHT22;6392;44.644;11.448;2024-03-23T13:28:44;23.10;99.90
12655;DHT22;6392;44.644;11.448;2024-03-23T13:31:13;23.20;99.90
12655;DHT22;6392;44.644;11.448;2024-03-23T13:33:39;23.40;99.90
12655;DHT22;6392;44.644;11.448;2024-03-23T13:36:10;23.60;99.90
12655;DHT22;6392;44.644;11.448;2024-03-23T13:38:36;23.70;99.90
12655;DHT22;6392;44.644;11.448;2024-03-23T13:41:03;23.40;99.90
12655;DHT22;6392;44.644;11.448;2024-03-23T13:43:32;23.30;99.90
12655;DHT22;6392;44.644;11.448;2024-03-23T13:46:02;23.60;99.90
12655;DHT22;6392;44.644;11.448;2024-03-23T13:48:29;23.90;99.90
12655;DHT22;6392;44.644;11.448;2024-03-23T13:51:00;23.80;99.90
12655;DHT22;6392;44.644;11.448;2024-03-23T13:53:31;23.40;99.90
12655;DHT22;6392;44.644;11.448;2024-03-23T13:56:00;23.40;99.90
12655;DHT22;6392;44.644;11.448;2024-03-23T13:58:26;23.80;99.90
12655;DHT22;6392;44.644;11.448;2024-03-23T14:00:56;24.10;99.90
12655;DHT22;6392;44.644;11.448;2024-03-23T14:03:25;24.10;99.90
12655;DHT22;6392;44.644;11.448;2024-03-23T14:05:58;23.80;99.90
12655;DHT22;6392;44.644;11.448;2024-03-23T14:08:26;23.70;99.90
12655;DHT22;6392;44.644;11.448;2024-03-23T14:10:53;23.50;99.90
12655;DHT22;6392;44.644;11.448;2024-03-23T14:13:19;23.10;99.90
12655;DHT22;6392;44.644;11.448;2024-03-23T14:15:47;22.80;99.90
12655;DHT22;6392;44.644;11.448;2024-03-23T14:18:18;22.80;99.90
12655;DHT22;6392;44.644;11.448;2024-03-23T14:20:46;23.00;99.90
12655;DHT22;6392;44.644;11.448;2024-03-23T14:23:13;23.10;99.90
12655;DHT22;6392;44.644;11.448;2024-03-23T14:25:40;23.00;99.90
12655;DHT22;6392;44.644;11.448;2024-03-23T14:28:06;23.00;99.90
12655;DHT22;6392;44.644;11.448;2024-03-23T14:30:39;23.10;99.90
12655;DHT22;6392;44.644;11.448;2024-03-23T14:33:06;23.30;99.90
12655;DHT22;6392;44.644;11.448;2024-03-23T14:35:33;23.40;99.90
12655;DHT22;6392;44.644;11.448;2024-03-23T14:38:01;23.50;99.90
12655;DHT22;6392;44.644;11.448;2024-03-23T14:40:29;23.60;99.90
12655;DHT22;6392;44.644;11.448;2024-03-23T14:42:55;23.70;99.90
12655;DHT22;6392;44.644;11.448;2024-03-23T14:45:23;23.90;99.90
12655;DHT22;6392;44.644;11.448;2024-03-23T14:47:50;24.10;99.90
12655;DHT22;6392;44.644;11.448;2024-03-23T14:50:18;24.20;99.90
12655;DHT22;6392;44.644;11.448;2024-03-23T14:52:44;24.20;99.90
12655;DHT22;6392;44.644;11.448;2024-03-23T14:55:13;24.40;99.90
12655;DHT22;6392;44.644;11.448;2024-03-23T14:57:39;24.50;99.90
12655;DHT22;6392;44.644;11.448;2024-03-23T15:00:08;24.80;99.90
12655;DHT22;6392;44.644;11.448;2024-03-23T15:02:36;25.10;99.90
12655;DHT22;6392;44.644;11.448;2024-03-23T15:05:04;25.30;99.90
12655;DHT22;6392;44.644;11.448;2024-03-23T15:07:30;25.50;99.90
12655;DHT22;6392;44.644;11.448;2024-03-23T15:09:57;25.80;99.90
12655;DHT22;6392;44.644;11.448;2024-03-23T15:12:24;26.00;99.90
12655;DHT22;6392;44.644;11.448;2024-03-23T15:14:51;26.20;99.90
12655;DHT22;6392;44.644;11.448;2024-03-23T15:17:18;26.40;99.90
12655;DHT22;6392;44.644;11.448;2024-03-23T15:19:45;26.50;99.90
12655;DHT22;6392;44.644;11.448;2024-03-23T15:22:11;26.20;99.90
12655;DHT22;6392;44.644;11.448;2024-03-23T15:24:38;25.70;99.90
12655;DHT22;6392;44.644;11.448;2024-03-23T15:27:04;25.60;99.90
12655;DHT22;6392;44.644;11.448;2024-03-23T15:29:35;25.20;99.90
12655;DHT22;6392;44.644;11.448;2024-03-23T15:32:02;24.50;99.90
12655;DHT22;6392;44.644;11.448;2024-03-23T15:34:29;24.10;99.90
12655;DHT22;6392;44.644;11.448;2024-03-23T15:36:55;23.70;99.90
12655;DHT22;6392;44.644;11.448;2024-03-23T15:39:22;23.60;99.90
12655;DHT22;6392;44.644;11.448;2024-03-23T15:41:48;23.50;99.90
12655;DHT22;6392;44.644;11.448;2024-03-23T15:44:15;23.30;99.90
12655;DHT22;6392;44.644;11.448;2024-03-23T15:46:43;23.40;99.90
12655;DHT22;6392;44.644;11.448;2024-03-23T15:49:10;23.70;99.90
12655;DHT22;6392;44.644;11.448;2024-03-23T15:51:36;24.20;99.90
12655;DHT22;6392;44.644;11.448;2024-03-23T15:54:05;24.80;99.90
12655;DHT22;6392;44.644;11.448;2024-03-23T15:56:31;25.30;99.90
12655;DHT22;6392;44.644;11.448;2024-03-23T15:58:58;25.50;99.90
12655;DHT22;6392;44.644;11.448;2024-03-23T16:01:31;25.60;99.90
12655;DHT22;6392;44.644;11.448;2024-03-23T16:04:01;25.80;99.90
12655;DHT22;6392;44.644;11.448;2024-03-23T16:06:27;26.00;99.90
12655;DHT22;6392;44.644;11.448;2024-03-23T16:08:54;25.90;99.90
12655;DHT22;6392;44.644;11.448;2024-03-23T16:11:20;25.60;99.90
12655;DHT22;6392;44.644;11.448;2024-03-23T16:13:47;25.00;99.90
12655;DHT22;6392;44.644;11.448;2024-03-23T16:16:13;24.50;99.90
12655;DHT22;6392;44.644;11.448;2024-03-23T16:18:42;24.10;99.90
12655;DHT22;6392;44.644;11.448;2024-03-23T16:21:11;23.90;99.90
12655;DHT22;6392;44.644;11.448;2024-03-23T16:23:38;23.50;99.90
12655;DHT22;6392;44.644;11.448;2024-03-23T16:26:04;23.30;99.90